sensor_id;sensor_type;location;lat;lon;timestamp;P1;durP1;ratioP1;P2;durP2;ratioP2
43690;SDS011;29293;52.190;21.226;2023-07-30T00:01:27;4.70;;;3.50;;
43690;SDS011;29293;52.190;21.226;2023-07-30T00:16:34;5.60;;;4.50;;
43690;SDS011;29293;52.190;21.226;2023-07-30T00:31:40;6.80;;;4.50;;
43690;SDS011;29293;52.190;21.226;2023-07-30T00:46:47;7.10;;;4.70;;
43690;SDS011;29293;52.190;21.226;2023-07-30T01:01:54;5.40;;;4.00;;
43690;SDS011;29293;52.190;21.226;2023-07-30T01:17:04;6.30;;;3.30;;
43690;SDS011;29293;52.190;21.226;2023-07-30T01:32:11;7.90;;;3.30;;
43690;SDS011;29293;52.190;21.226;2023-07-30T01:47:18;9.40;;;3.20;;
43690;SDS011;29293;52.190;21.226;2023-07-30T02:02:25;5.90;;;3.20;;
43690;SDS011;29293;52.190;21.226;2023-07-30T02:17:32;8.10;;;3.80;;
43690;SDS011;29293;52.190;21.226;2023-07-30T02:32:39;7.80;;;3.40;;
43690;SDS011;29293;52.190;21.226;2023-07-30T02:47:46;7.10;;;4.10;;
43690;SDS011;29293;52.190;21.226;2023-07-30T03:02:53;7.80;;;4.00;;
43690;SDS011;29293;52.190;21.226;2023-07-30T03:18:01;5.90;;;4.30;;
43690;SDS011;29293;52.190;21.226;2023-07-30T03:33:08;9.20;;;4.00;;
43690;SDS011;29293;52.190;21.226;2023-07-30T03:48:14;8.00;;;4.40;;
43690;SDS011;29293;52.190;21.226;2023-07-30T04:03:21;14.00;;;5.70;;
43690;SDS011;29293;52.190;21.226;2023-07-30T04:18:28;16.10;;;6.10;;
43690;SDS011;29293;52.190;21.226;2023-07-30T04:33:35;7.40;;;5.90;;
43690;SDS011;29293;52.190;21.226;2023-07-30T04:48:42;8.40;;;6.20;;
43690;SDS011;29293;52.190;21.226;2023-07-30T05:03:49;9.60;;;6.40;;
43690;SDS011;29293;52.190;21.226;2023-07-30T05:18:57;6.00;;;5.30;;
43690;SDS011;29293;52.190;21.226;2023-07-30T05:34:03;9.80;;;5.20;;
43690;SDS011;29293;52.190;21.226;2023-07-30T05:49:10;5.30;;;4.60;;
43690;SDS011;29293;52.190;21.226;2023-07-30T06:04:18;9.30;;;6.50;;
43690;SDS011;29293;52.190;21.226;2023-07-30T06:19:25;9.90;;;7.50;;
43690;SDS011;29293;52.190;21.226;2023-07-30T06:34:32;9.90;;;8.90;;
43690;SDS011;29293;52.190;21.226;2023-07-30T06:49:39;12.20;;;8.50;;
43690;SDS011;29293;52.190;21.226;2023-07-30T07:04:46;9.40;;;7.60;;
43690;SDS011;29293;52.190;21.226;2023-07-30T07:19:53;8.30;;;5.60;;
43690;SDS011;29293;52.190;21.226;2023-07-30T07:34:59;7.40;;;5.90;;
43690;SDS011;29293;52.190;21.226;2023-07-30T07:50:07;10.20;;;5.90;;
43690;SDS011;29293;52.190;21.226;2023-07-30T08:05:14;9.50;;;6.10;;
43690;SDS011;29293;52.190;21.226;2023-07-30T08:20:23;11.70;;;6.80;;
43690;SDS011;29293;52.190;21.226;2023-07-30T08:35:30;7.70;;;5.30;;
43690;SDS011;29293;52.190;21.226;2023-07-30T08:50:37;6.10;;;4.20;;
43690;SDS011;29293;52.190;21.226;2023-07-30T09:05:44;9.50;;;4.10;;
43690;SDS011;29293;52.190;21.226;2023-07-30T09:20:51;4.60;;;3.60;;
43690;SDS011;29293;52.190;21.226;2023-07-30T09:35:58;6.00;;;3.50;;
43690;SDS011;29293;52.190;21.226;2023-07-30T09:51:06;6.60;;;3.90;;
43690;SDS011;29293;52.190;21.226;2023-07-30T10:06:13;3.80;;;3.20;;
43690;SDS011;29293;52.190;21.226;2023-07-30T10:21:23;5.20;;;3.50;;
43690;SDS011;29293;52.190;21.226;2023-07-30T10:36:32;7.20;;;3.40;;
43690;SDS011;29293;52.190;21.226;2023-07-30T10:51:41;5.20;;;3.30;;
43690;SDS011;29293;52.190;21.226;2023-07-30T11:06:48;5.30;;;3.40;;
43690;SDS011;29293;52.190;21.226;2023-07-30T11:21:56;6.50;;;4.00;;
43690;SDS011;29293;52.190;21.226;2023-07-30T11:37:03;5.10;;;3.50;;
43690;SDS011;29293;52.190;21.226;2023-07-30T11:52:12;5.30;;;3.50;;
43690;SDS011;29293;52.190;21.226;2023-07-30T12:07:23;4.50;;;3.50;;
43690;SDS011;29293;52.190;21.226;2023-07-30T12:22:30;5.30;;;3.90;;
43690;SDS011;29293;52.190;21.226;2023-07-30T12:52:43;5.90;;;3.30;;
43690;SDS011;29293;52.190;21.226;2023-07-30T13:22:56;5.80;;;3.80;;
43690;SDS011;29293;52.190;21.226;2023-07-30T13:38:03;5.00;;;3.80;;
43690;SDS011;29293;52.190;21.226;2023-07-30T14:09:14;4.80;;;3.80;;
43690;SDS011;29293;52.190;21.226;2023-07-30T14:24:22;6.40;;;3.70;;
43690;SDS011;29293;52.190;21.226;2023-07-30T14:39:29;6.20;;;4.00;;
43690;SDS011;29293;52.190;21.226;2023-07-30T14:54:36;4.40;;;3.30;;
43690;SDS011;29293;52.190;21.226;2023-07-30T15:09:44;6.00;;;3.60;;
43690;SDS011;29293;52.190;21.226;2023-07-30T15:24:51;7.10;;;3.70;;
43690;SDS011;29293;52.190;21.226;2023-07-30T15:39:58;4.80;;;3.30;;
43690;SDS011;29293;52.190;21.226;2023-07-30T15:55:06;6.70;;;3.30;;
43690;SDS011;29293;52.190;21.226;2023-07-30T16:10:15;5.70;;;3.50;;
43690;SDS011;29293;52.190;21.226;2023-07-30T16:25:22;5.70;;;3.60;;
43690;SDS011;29293;52.190;21.226;2023-07-30T16:40:29;5.90;;;4.00;;
43690;SDS011;29293;52.190;21.226;2023-07-30T16:55:36;5.20;;;3.70;;
43690;SDS011;29293;52.190;21.226;2023-07-30T17:10:43;4.90;;;3.80;;
43690;SDS011;29293;52.190;21.226;2023-07-30T17:25:54;7.80;;;4.30;;
43690;SDS011;29293;52.190;21.226;2023-07-30T17:41:02;6.60;;;4.20;;
43690;SDS011;29293;52.190;21.226;2023-07-30T17:56:10;5.30;;;3.90;;
43690;SDS011;29293;52.190;21.226;2023-07-30T18:11:18;8.00;;;4.60;;
43690;SDS011;29293;52.190;21.226;2023-07-30T18:26:25;6.30;;;4.10;;
43690;SDS011;29293;52.190;21.226;2023-07-30T18:41:32;7.80;;;4.00;;
43690;SDS011;29293;52.190;21.226;2023-07-30T18:56:40;6.70;;;4.40;;
43690;SDS011;29293;52.190;21.226;2023-07-30T19:11:48;7.20;;;5.50;;
43690;SDS011;29293;52.190;21.226;2023-07-30T19:26:56;11.00;;;8.30;;
43690;SDS011;29293;52.190;21.226;2023-07-30T19:42:07;10.80;;;7.50;;
43690;SDS011;29293;52.190;21.226;2023-07-30T19:57:14;13.30;;;8.10;;
43690;SDS011;29293;52.190;21.226;2023-07-30T20:12:22;9.80;;;7.70;;
43690;SDS011;29293;52.190;21.226;2023-07-30T20:27:29;12.20;;;6.90;;
43690;SDS011;29293;52.190;21.226;2023-07-30T20:42:36;12.60;;;7.40;;
43690;SDS011;29293;52.190;21.226;2023-07-30T20:57:43;11.30;;;8.20;;
43690;SDS011;29293;52.190;21.226;2023-07-30T21:12:50;8.90;;;7.00;;
43690;SDS011;29293;52.190;21.226;2023-07-30T21:27:57;11.00;;;7.00;;
43690;SDS011;29293;52.190;21.226;2023-07-30T21:43:03;11.40;;;7.30;;
43690;SDS011;29293;52.190;21.226;2023-07-30T21:58:10;11.70;;;7.20;;
43690;SDS011;29293;52.190;21.226;2023-07-30T22:13:17;12.60;;;7.40;;
43690;SDS011;29293;52.190;21.226;2023-07-30T22:28:24;10.10;;;6.90;;
43690;SDS011;29293;52.190;21.226;2023-07-30T22:43:31;8.80;;;7.30;;
43690;SDS011;29293;52.190;21.226;2023-07-30T22:58:38;9.60;;;7.30;;
43690;SDS011;29293;52.190;21.226;2023-07-30T23:13:44;12.30;;;7.10;;
43690;SDS011;29293;52.190;21.226;2023-07-30T23:28:51;10.80;;;6.60;;
43690;SDS011;29293;52.190;21.226;2023-07-30T23:43:58;8.00;;;6.30;;
43690;SDS011;29293;52.190;21.226;2023-07-30T23:59:05;12.30;;;5.50;;
